Time;durP1;ratioP1;P1;durP2;ratioP2;P2;SDS_P1;SDS_P2;PMS_P1;PMS_P2;Temp;Humidity;BMP_temperature;BMP_pressure;BME280_temperature;BME280_humidity;BME280_pressure;Samples;Min_cycle;Max_cycle;Signal;HPM_P1;HPM_P2
2022/10/14 00:00:41;;;;;;;6.13;4.00;;;13.50;99.90;;;;;;5108730;28;20436;-75
2022/10/14 00:03:07;;;;;;;3.70;3.20;;;13.40;99.90;;;;;;5112913;28;20471;-75
2022/10/14 00:05:34;;;;;;;4.77;3.70;;;13.40;99.90;;;;;;5113611;28;20448;-75
2022/10/14 00:08:01;;;;;;;4.93;3.70;;;13.40;99.90;;;;;;5112246;28;20452;-74
2022/10/14 00:10:29;;;;;;;5.60;4.50;;;13.40;99.90;;;;;;5102998;28;20440;-73
2022/10/14 00:12:56;;;;;;;5.77;4.63;;;13.30;99.90;;;;;;5112686;28;20440;-74
2022/10/14 00:15:23;;;;;;;6.40;3.93;;;13.30;99.90;;;;;;5113557;28;20452;-74
2022/10/14 00:17:49;;;;;;;7.37;3.80;;;13.30;99.90;;;;;;5113197;28;20467;-75
2022/10/14 00:20:16;;;;;;;7.60;4.67;;;13.30;99.90;;;;;;5112488;28;20815;-75
2022/10/14 00:22:43;;;;;;;5.50;3.70;;;13.40;99.90;;;;;;5112376;28;20452;-75
2022/10/14 00:25:10;;;;;;;10.03;4.50;;;13.30;99.90;;;;;;5112721;28;20792;-75
2022/10/14 00:27:38;;;;;;;5.13;3.87;;;13.30;99.90;;;;;;5112824;28;20444;-75
2022/10/14 00:30:06;;;;;;;6.90;3.50;;;13.30;99.90;;;;;;5111615;28;20450;-74
2022/10/14 00:32:32;;;;;;;5.37;4.30;;;13.30;99.90;;;;;;5112700;28;20798;-75
2022/10/14 00:34:59;;;;;;;4.30;3.63;;;13.30;99.90;;;;;;5112319;28;20810;-74
2022/10/14 00:37:26;;;;;;;4.50;3.80;;;13.20;99.90;;;;;;5112464;28;20448;-76
2022/10/14 00:39:53;;;;;;;4.30;3.43;;;13.20;99.90;;;;;;5112664;28;20448;-76
2022/10/14 00:42:20;;;;;;;7.17;4.43;;;13.20;99.90;;;;;;5112892;28;20488;-75
2022/10/14 00:45:14;;;;;;;7.10;5.17;;;13.20;99.90;;;;;;5111788;28;20448;-76
2022/10/14 00:47:42;;;;;;;4.47;3.67;;;13.30;99.90;;;;;;5091549;28;20486;-76
2022/10/14 00:50:10;;;;;;;5.30;4.80;;;13.30;99.90;;;;;;5111313;28;20879;-74
2022/10/14 00:52:37;;;;;;;5.57;4.03;;;13.30;99.90;;;;;;5112056;28;20448;-74
2022/10/14 00:55:08;;;;;;;5.10;3.47;;;13.30;99.90;;;;;;5111890;28;20480;-74
2022/10/14 00:57:35;;;;;;;11.67;5.67;;;13.30;99.90;;;;;;5112259;28;20448;-75
2022/10/14 01:00:06;;;;;;;5.10;3.60;;;13.30;99.90;;;;;;5110663;28;20447;-75
2022/10/14 01:02:34;;;;;;;7.70;4.83;;;13.20;99.90;;;;;;5111963;28;20440;-74
2022/10/14 01:05:02;;;;;;;5.67;3.80;;;13.30;99.90;;;;;;5111870;28;20444;-75
2022/10/14 01:07:39;;;;;;;4.90;3.43;;;13.20;99.90;;;;;;5112271;28;20451;-75
2022/10/14 01:10:14;;;;;;;5.40;4.00;;;13.20;99.90;;;;;;5108367;28;20470;-75
2022/10/14 01:12:54;;;;;;;5.57;3.70;;;13.20;99.90;;;;;;5099310;28;20795;-75
2022/10/14 01:15:28;;;;;;;8.20;4.43;;;13.20;99.90;;;;;;5112194;28;20983;-74
2022/10/14 01:18:08;;;;;;;4.10;3.70;;;13.10;99.90;;;;;;5110904;28;20446;-74
2022/10/14 01:21:03;;;;;;;5.63;3.60;;;13.10;99.90;;;;;;5111385;28;20436;-74
2022/10/14 01:24:04;;;;;;;7.97;3.60;;;13.10;99.90;;;;;;5102666;28;20448;-75
2022/10/14 01:26:56;;;;;;;5.70;4.40;;;13.10;99.90;;;;;;5108654;28;20442;-75
2022/10/14 01:29:56;;;;;;;5.20;4.20;;;13.10;99.90;;;;;;5111998;28;20444;-75
2022/10/14 01:32:27;;;;;;;5.27;3.30;;;13.10;99.90;;;;;;5112086;28;20785;-74
2022/10/14 01:34:59;;;;;;;5.20;4.70;;;13.20;99.90;;;;;;5102854;28;20472;-74
2022/10/14 01:37:29;;;;;;;5.87;4.63;;;13.20;99.90;;;;;;5111726;28;20946;-74
2022/10/14 01:40:00;;;;;;;4.20;3.30;;;13.20;99.90;;;;;;5111040;28;20451;-74
2022/10/14 01:42:31;;;;;;;5.57;4.20;;;13.30;99.90;;;;;;5111975;28;20444;-74
2022/10/14 01:45:06;;;;;;;5.93;3.50;;;13.20;99.90;;;;;;5108134;28;20917;-75
2022/10/14 01:47:34;;;;;;;5.13;3.40;;;13.20;99.90;;;;;;5111301;28;20461;-75
2022/10/14 01:50:05;;;;;;;6.03;3.90;;;13.20;99.90;;;;;;5110964;28;20458;-75
2022/10/14 01:52:36;;;;;;;9.43;4.00;;;13.30;99.90;;;;;;5111588;28;20439;-75
2022/10/14 01:55:09;;;;;;;5.60;4.20;;;13.30;99.90;;;;;;5115043;28;20471;-74
2022/10/14 01:57:39;;;;;;;6.77;4.67;;;13.30;99.90;;;;;;5118181;28;20443;-74
2022/10/14 02:00:10;;;;;;;5.50;4.23;;;13.30;99.90;;;;;;5117113;28;20448;-74
2022/10/14 02:02:37;;;;;;;6.83;4.47;;;13.30;99.90;;;;;;5124164;27;20478;-73
2022/10/14 02:05:08;;;;;;;5.07;4.40;;;13.40;99.90;;;;;;5117890;27;20967;-75
2022/10/14 02:07:39;;;;;;;5.23;3.73;;;13.40;99.90;;;;;;5117683;27;20995;-74
2022/10/14 02:10:18;;;;;;;5.40;3.80;;;13.50;99.90;;;;;;5114014;28;20973;-75
2022/10/14 02:12:55;;;;;;;9.50;3.97;;;13.50;99.90;;;;;;5117885;28;20979;-74
2022/10/14 02:15:32;;;;;;;4.70;3.87;;;13.50;99.90;;;;;;5118565;28;20475;-74
2022/10/14 02:18:05;;;;;;;3.80;3.37;;;13.50;99.90;;;;;;5117980;27;20529;-75
2022/10/14 02:20:36;;;;;;;6.10;3.50;;;13.50;99.90;;;;;;5117299;28;20440;-75
2022/10/14 02:23:11;;;;;;;4.47;4.00;;;13.50;99.90;;;;;;5109177;28;20432;-75
2022/10/14 02:25:41;;;;;;;5.70;4.77;;;13.60;99.90;;;;;;5118213;28;20439;-75
2022/10/14 02:28:09;;;;;;;10.33;4.00;;;13.70;99.90;;;;;;5117532;28;20815;-75
2022/10/14 02:30:41;;;;;;;5.10;3.30;;;13.60;99.90;;;;;;5117474;28;20440;-75
2022/10/14 02:33:08;;;;;;;11.20;3.73;;;13.60;99.90;;;;;;5117280;28;20443;-74
2022/10/14 02:35:38;;;;;;;4.93;3.70;;;13.80;99.90;;;;;;5117654;28;20538;-75
2022/10/14 02:38:07;;;;;;;6.70;4.00;;;13.80;99.90;;;;;;5117579;28;20508;-75
2022/10/14 02:40:38;;;;;;;6.60;4.27;;;13.90;99.90;;;;;;5117481;28;20775;-75
2022/10/14 02:43:06;;;;;;;6.43;3.67;;;13.90;99.90;;;;;;5116891;28;20454;-75
2022/10/14 02:45:34;;;;;;;5.50;3.87;;;13.80;99.90;;;;;;5117792;28;20478;-75
2022/10/14 02:48:02;;;;;;;6.03;4.33;;;13.90;99.90;;;;;;5116529;28;20471;-76
2022/10/14 02:50:29;;;;;;;7.30;3.87;;;13.90;99.90;;;;;;5117177;28;20443;-75
2022/10/14 02:52:56;;;;;;;4.17;3.70;;;13.90;99.90;;;;;;5117280;28;20452;-71
2022/10/14 02:55:22;;;;;;;5.53;3.93;;;13.90;99.90;;;;;;5117635;28;20475;-74
2022/10/14 02:57:50;;;;;;;6.53;4.13;;;14.00;99.90;;;;;;5118260;28;20444;-75
2022/10/14 03:00:17;;;;;;;5.50;4.13;;;14.00;99.90;;;;;;5116386;28;20443;-75
2022/10/14 03:02:44;;;;;;;5.93;4.00;;;13.90;99.90;;;;;;5131255;27;20457;-72
2022/10/14 03:05:12;;;;;;;7.03;3.50;;;13.90;99.90;;;;;;5117190;27;20579;-76
2022/10/14 03:07:39;;;;;;;5.70;4.00;;;13.90;99.90;;;;;;5113861;28;20475;-75
2022/10/14 03:10:06;;;;;;;3.93;3.60;;;13.90;99.90;;;;;;5112918;28;20813;-75
2022/10/14 03:12:33;;;;;;;5.03;4.30;;;13.90;99.90;;;;;;5108482;28;20538;-74
2022/10/14 03:15:00;;;;;;;6.70;3.77;;;13.80;99.90;;;;;;5113273;28;20989;-76
2022/10/14 03:17:27;;;;;;;4.47;3.30;;;13.90;99.90;;;;;;5114067;28;20585;-75
2022/10/14 03:19:54;;;;;;;4.23;2.93;;;14.00;99.90;;;;;;5107103;28;20444;-74
2022/10/14 03:22:22;;;;;;;4.93;3.40;;;13.90;99.90;;;;;;5114031;27;20454;-72
2022/10/14 03:24:49;;;;;;;4.13;3.50;;;13.90;99.90;;;;;;5114097;28;20805;-76
2022/10/14 03:27:16;;;;;;;4.97;3.40;;;13.80;99.90;;;;;;5101778;28;20448;-76
2022/10/14 03:29:42;;;;;;;4.90;3.70;;;13.70;99.90;;;;;;5113757;28;20458;-75
2022/10/14 03:32:09;;;;;;;4.43;3.07;;;13.70;99.90;;;;;;5108770;28;20444;-76
2022/10/14 03:34:36;;;;;;;4.47;3.97;;;13.60;99.90;;;;;;5114157;28;20483;-76
2022/10/14 03:37:03;;;;;;;4.33;3.60;;;13.60;99.90;;;;;;5099626;28;20802;-75
2022/10/14 03:39:31;;;;;;;4.70;3.97;;;13.60;99.90;;;;;;5113769;28;20466;-75
2022/10/14 03:41:58;;;;;;;5.30;4.10;;;13.60;99.90;;;;;;5112158;28;20926;-74
2022/10/14 03:44:25;;;;;;;4.37;3.33;;;13.50;99.90;;;;;;5103306;28;20448;-71
2022/10/14 03:46:52;;;;;;;4.50;3.73;;;13.40;99.90;;;;;;5114206;28;20459;-75
2022/10/14 03:49:18;;;;;;;7.00;4.20;;;13.40;99.90;;;;;;5112273;28;20463;-74
2022/10/14 03:51:45;;;;;;;10.37;3.77;;;13.30;99.90;;;;;;5113518;28;20448;-74
2022/10/14 03:54:12;;;;;;;6.20;4.10;;;13.20;99.90;;;;;;5112722;28;20448;-73
2022/10/14 03:56:40;;;;;;;4.40;3.50;;;13.20;99.90;;;;;;5113007;28;20484;-74
2022/10/14 03:59:07;;;;;;;4.63;3.80;;;13.10;99.90;;;;;;5112533;28;20969;-74
2022/10/14 04:01:34;;;;;;;6.53;3.40;;;13.10;99.90;;;;;;5115205;27;20466;-74
2022/10/14 04:04:00;;;;;;;7.50;3.83;;;13.10;99.90;;;;;;5122282;27;20447;-74
2022/10/14 04:06:27;;;;;;;6.57;3.90;;;13.10;99.90;;;;;;5113118;28;20462;-78
2022/10/14 04:08:54;;;;;;;5.73;3.10;;;13.00;99.90;;;;;;5112246;28;20448;-67
2022/10/14 04:11:22;;;;;;;7.50;4.63;;;13.10;99.90;;;;;;5108016;28;20447;-71
2022/10/14 04:13:50;;;;;;;4.33;3.67;;;13.10;99.90;;;;;;5104008;28;20451;-72
2022/10/14 04:16:17;;;;;;;16.30;6.43;;;13.10;99.90;;;;;;5112956;28;20498;-73
2022/10/14 04:18:43;;;;;;;4.07;3.47;;;13.10;99.90;;;;;;5111518;28;20435;-74
2022/10/14 04:21:12;;;;;;;4.57;3.70;;;13.10;99.90;;;;;;5111886;28;20448;-74
2022/10/14 04:23:38;;;;;;;10.20;4.17;;;13.00;99.90;;;;;;5113005;28;20440;-72
2022/10/14 04:26:07;;;;;;;9.60;6.10;;;13.00;99.90;;;;;;5112599;28;20811;-72
2022/10/14 04:28:35;;;;;;;5.53;4.10;;;13.10;99.90;;;;;;5112776;28;20448;-73
2022/10/14 04:31:03;;;;;;;5.30;3.90;;;13.00;99.90;;;;;;5111361;28;20969;-71
2022/10/14 04:33:31;;;;;;;4.60;3.27;;;12.90;99.90;;;;;;5112753;28;20455;-71
2022/10/14 04:35:58;;;;;;;5.67;4.20;;;13.00;99.90;;;;;;5112405;28;20502;-71
2022/10/14 04:38:25;;;;;;;3.23;2.80;;;13.10;99.90;;;;;;5112916;28;20448;-71
2022/10/14 04:40:52;;;;;;;6.10;4.27;;;13.10;99.90;;;;;;5112540;28;20463;-71
2022/10/14 04:43:19;;;;;;;6.70;4.90;;;13.00;99.90;;;;;;5112527;28;20451;-72
2022/10/14 04:45:46;;;;;;;4.40;3.93;;;13.10;99.90;;;;;;5112874;28;20811;-72
2022/10/14 04:48:14;;;;;;;6.47;4.33;;;13.10;99.90;;;;;;5111924;28;20472;-72
2022/10/14 04:50:42;;;;;;;7.00;4.03;;;13.20;99.90;;;;;;5112291;28;20455;-72
2022/10/14 04:53:08;;;;;;;5.13;3.50;;;13.20;99.90;;;;;;5111655;28;20949;-72
2022/10/14 04:55:35;;;;;;;6.30;5.60;;;13.30;99.90;;;;;;5112211;28;20480;-72
2022/10/14 04:58:02;;;;;;;6.53;4.63;;;13.30;99.90;;;;;;5111554;28;20458;-72
2022/10/14 05:00:29;;;;;;;7.07;5.30;;;13.40;99.90;;;;;;5112039;28;20819;-71
2022/10/14 05:02:56;;;;;;;5.10;4.33;;;13.30;99.90;;;;;;5111705;28;20446;-71
2022/10/14 05:05:24;;;;;;;7.03;4.10;;;13.40;99.90;;;;;;5112292;28;20458;-71
2022/10/14 05:07:51;;;;;;;7.00;4.50;;;13.40;99.90;;;;;;5112666;28;20780;-70
2022/10/14 05:10:18;;;;;;;5.30;4.60;;;13.40;99.90;;;;;;5111431;28;20453;-72
2022/10/14 05:12:45;;;;;;;7.33;5.20;;;13.40;99.90;;;;;;5112395;28;20823;-71
2022/10/14 05:15:11;;;;;;;9.47;4.90;;;13.30;99.90;;;;;;5111707;28;20483;-71
2022/10/14 05:17:38;;;;;;;10.00;4.87;;;13.30;99.90;;;;;;5111806;28;20467;-71
2022/10/14 05:20:07;;;;;;;6.07;4.43;;;13.40;99.90;;;;;;5111608;28;20502;-72
2022/10/14 05:22:35;;;;;;;6.10;4.90;;;13.20;99.90;;;;;;5112257;28;20459;-71
2022/10/14 05:25:02;;;;;;;7.23;4.57;;;13.30;99.90;;;;;;5111599;28;20444;-72
2022/10/14 05:27:29;;;;;;;5.50;4.40;;;13.40;99.90;;;;;;5112453;28;20444;-71
2022/10/14 05:29:56;;;;;;;7.33;5.20;;;13.40;99.90;;;;;;5111254;28;20458;-72
2022/10/14 05:32:23;;;;;;;7.63;5.53;;;13.40;99.90;;;;;;5112906;28;20475;-72
2022/10/14 05:34:50;;;;;;;6.80;5.00;;;13.40;99.90;;;;;;5114382;28;20490;-72
2022/10/14 05:37:16;;;;;;;5.63;4.20;;;13.40;99.90;;;;;;5114967;28;20444;-72
2022/10/14 05:39:45;;;;;;;13.07;5.93;;;13.40;99.90;;;;;;5115296;28;20504;-71
2022/10/14 05:42:12;;;;;;;6.57;5.20;;;13.40;99.90;;;;;;5117636;28;20447;-71
2022/10/14 05:44:39;;;;;;;10.00;5.40;;;13.40;99.90;;;;;;5121500;28;20447;-71
2022/10/14 05:47:05;;;;;;;6.40;5.30;;;13.50;99.90;;;;;;5122473;28;20508;-72
2022/10/14 05:49:32;;;;;;;9.17;6.00;;;13.40;99.90;;;;;;5121144;28;20480;-72
2022/10/14 05:51:59;;;;;;;9.30;5.03;;;13.40;99.90;;;;;;5128556;28;20961;-72
2022/10/14 05:54:26;;;;;;;7.87;5.37;;;13.50;99.90;;;;;;5129324;28;20462;-69
2022/10/14 05:56:55;;;;;;;10.53;4.93;;;13.40;99.90;;;;;;5127285;28;20484;-71
2022/10/14 05:59:22;;;;;;;8.83;5.57;;;13.40;99.90;;;;;;5124664;28;20915;-71
2022/10/14 06:01:48;;;;;;;9.40;5.53;;;13.40;99.90;;;;;;5115618;28;20439;-71
2022/10/14 06:04:17;;;;;;;6.80;4.83;;;13.40;99.90;;;;;;5113721;28;20538;-72
2022/10/14 06:06:44;;;;;;;6.57;4.67;;;13.50;99.90;;;;;;5112850;28;20514;-72
2022/10/14 06:09:11;;;;;;;6.20;4.90;;;13.50;99.90;;;;;;5111324;28;20452;-72
2022/10/14 06:11:38;;;;;;;6.50;5.43;;;13.60;99.90;;;;;;5098753;28;20439;-72
2022/10/14 06:14:07;;;;;;;7.50;4.63;;;13.60;99.90;;;;;;5111125;28;20448;-71
2022/10/14 06:16:34;;;;;;;6.30;5.30;;;13.60;99.90;;;;;;5111390;28;20488;-72
2022/10/14 06:19:01;;;;;;;7.73;5.23;;;13.70;99.90;;;;;;5110331;28;20447;-72
2022/10/14 06:21:28;;;;;;;8.60;5.20;;;13.60;99.90;;;;;;5111605;28;20452;-72
2022/10/14 06:23:55;;;;;;;6.13;4.73;;;13.60;99.90;;;;;;5111412;28;20467;-67
2022/10/14 06:26:21;;;;;;;6.80;4.87;;;13.60;99.90;;;;;;5111964;28;20809;-70
2022/10/14 06:28:48;;;;;;;5.00;4.57;;;13.70;99.90;;;;;;5111784;28;20454;-71
2022/10/14 06:31:17;;;;;;;9.97;5.47;;;13.70;99.90;;;;;;5110467;28;20470;-71
2022/10/14 06:33:43;;;;;;;5.03;4.40;;;13.80;99.90;;;;;;5110838;28;20502;-71
2022/10/14 06:36:11;;;;;;;6.80;4.50;;;13.70;99.90;;;;;;5110818;28;20511;-70
2022/10/14 06:38:38;;;;;;;8.40;4.50;;;13.90;99.90;;;;;;5111280;28;20475;-71
2022/10/14 06:41:05;;;;;;;7.80;4.80;;;13.90;99.90;;;;;;5110578;28;20469;-71
2022/10/14 06:43:34;;;;;;;5.67;4.07;;;13.90;99.90;;;;;;5115039;28;20447;-71
2022/10/14 06:46:02;;;;;;;10.07;5.07;;;13.90;99.90;;;;;;5114093;28;20930;-70
2022/10/14 06:48:30;;;;;;;8.50;5.50;;;13.90;99.90;;;;;;5114198;28;20487;-71
2022/10/14 06:50:58;;;;;;;8.00;5.57;;;14.00;99.90;;;;;;5113706;28;20448;-71
2022/10/14 06:53:25;;;;;;;7.30;5.03;;;14.00;99.90;;;;;;5114848;28;20448;-69
2022/10/14 06:55:58;;;;;;;7.17;5.00;;;14.10;99.90;;;;;;5115040;28;20480;-70
2022/10/14 06:58:25;;;;;;;6.50;4.33;;;14.10;99.90;;;;;;5114879;28;20447;-69
2022/10/14 07:00:51;;;;;;;11.00;4.80;;;14.10;99.90;;;;;;5114583;28;20452;-70
2022/10/14 07:03:18;;;;;;;6.30;5.20;;;14.00;99.90;;;;;;5114205;28;20446;-71
2022/10/14 07:05:47;;;;;;;8.80;4.70;;;14.00;99.90;;;;;;5114849;28;20448;-71
2022/10/14 07:08:14;;;;;;;6.57;4.23;;;14.00;99.90;;;;;;5113623;28;20452;-71
2022/10/14 07:10:41;;;;;;;4.73;4.00;;;14.10;99.90;;;;;;5114203;28;20798;-71
2022/10/14 07:13:08;;;;;;;5.53;4.30;;;14.10;99.90;;;;;;5113757;28;20462;-70
2022/10/14 07:15:34;;;;;;;6.47;4.63;;;14.10;99.90;;;;;;5114433;28;20486;-71
2022/10/14 07:18:01;;;;;;;5.97;3.97;;;14.10;99.90;;;;;;5114021;28;20817;-71
2022/10/14 07:20:28;;;;;;;6.27;4.73;;;14.20;99.90;;;;;;5114393;28;20442;-71
2022/10/14 07:22:56;;;;;;;5.33;4.53;;;14.10;99.90;;;;;;5114012;28;20451;-68
2022/10/14 07:25:23;;;;;;;9.47;5.10;;;14.20;99.90;;;;;;5114740;28;20451;-71
2022/10/14 07:27:52;;;;;;;7.40;4.67;;;14.30;99.90;;;;;;5114533;28;20451;-71
2022/10/14 07:30:20;;;;;;;10.33;4.57;;;14.30;99.90;;;;;;5113977;28;20450;-70
2022/10/14 07:32:47;;;;;;;9.30;4.87;;;14.40;99.90;;;;;;5100664;28;20447;-71
2022/10/14 07:35:13;;;;;;;7.50;4.30;;;14.50;99.90;;;;;;5113522;28;20984;-71
2022/10/14 07:37:40;;;;;;;5.57;4.30;;;14.70;99.90;;;;;;5114296;28;20923;-71
2022/10/14 07:40:10;;;;;;;5.77;4.90;;;14.60;99.90;;;;;;5113057;28;20447;-71
2022/10/14 07:42:37;;;;;;;5.00;3.90;;;14.80;99.90;;;;;;5114175;28;20444;-71
2022/10/14 07:45:05;;;;;;;7.27;4.67;;;14.80;99.90;;;;;;5113478;28;20816;-71
2022/10/14 07:47:32;;;;;;;11.93;5.23;;;14.80;99.90;;;;;;5113760;28;20455;-71
2022/10/14 07:50:00;;;;;;;7.40;3.57;;;14.90;99.90;;;;;;5113008;28;20851;-71
2022/10/14 07:52:27;;;;;;;6.47;4.30;;;14.90;99.90;;;;;;5113668;28;20452;-71
2022/10/14 07:54:54;;;;;;;7.47;4.20;;;15.00;99.90;;;;;;5113757;28;20929;-67
2022/10/14 07:57:23;;;;;;;5.90;4.07;;;14.90;99.90;;;;;;5113959;28;20484;-69
2022/10/14 07:59:51;;;;;;;4.43;3.90;;;15.00;99.90;;;;;;5113194;28;20998;-71
2022/10/14 08:02:18;;;;;;;4.73;3.80;;;15.10;99.90;;;;;;5112797;28;20444;-71
2022/10/14 08:04:45;;;;;;;10.60;4.03;;;15.10;99.90;;;;;;5113170;28;20451;-71
2022/10/14 08:07:14;;;;;;;8.70;3.30;;;15.20;99.90;;;;;;5113110;28;20448;-71
2022/10/14 08:09:41;;;;;;;6.10;4.07;;;15.30;99.90;;;;;;5112779;28;21028;-71
2022/10/14 08:12:08;;;;;;;7.50;4.40;;;15.40;99.90;;;;;;5112825;28;20455;-71
2022/10/14 08:14:36;;;;;;;3.50;2.87;;;15.60;99.90;;;;;;5113460;28;20482;-71
2022/10/14 08:17:03;;;;;;;6.17;3.53;;;15.70;99.90;;;;;;5112431;28;21005;-71
2022/10/14 08:19:30;;;;;;;5.20;3.30;;;15.50;99.90;;;;;;5112500;28;20930;-71
2022/10/14 08:21:57;;;;;;;3.60;3.10;;;15.50;99.90;;;;;;5112560;28;20440;-71
2022/10/14 08:24:24;;;;;;;4.30;2.93;;;15.60;99.90;;;;;;5113343;28;20451;-70
2022/10/14 08:26:52;;;;;;;6.17;3.70;;;15.70;99.90;;;;;;5113367;28;20471;-71
2022/10/14 08:29:21;;;;;;;5.37;2.63;;;15.70;99.90;;;;;;5112406;28;20451;-71
2022/10/14 08:31:50;;;;;;;3.27;2.83;;;15.80;99.90;;;;;;5113383;28;20885;-70
2022/10/14 08:34:19;;;;;;;3.80;2.47;;;15.80;99.90;;;;;;5112350;28;20545;-71
2022/10/14 08:36:46;;;;;;;3.60;2.50;;;16.00;99.90;;;;;;5113093;28;20515;-71
2022/10/14 08:39:13;;;;;;;3.00;2.33;;;16.00;99.90;;;;;;5112090;28;20448;-70
2022/10/14 08:42:05;;;;;;;3.87;2.87;;;15.80;99.90;;;;;;5112984;28;20455;-71
2022/10/14 08:44:42;;;;;;;4.57;2.97;;;15.90;99.90;;;;;;5113012;28;20454;-70
2022/10/14 08:47:14;;;;;;;5.60;2.97;;;16.00;99.90;;;;;;5112397;28;20452;-71
2022/10/14 08:49:54;;;;;;;4.67;2.40;;;16.20;99.90;;;;;;5112324;28;20572;-71
2022/10/14 08:52:26;;;;;;;3.77;2.90;;;16.00;94.90;;;;;;5112561;28;20440;-71
2022/10/14 08:54:58;;;;;;;5.83;2.80;;;16.00;99.90;;;;;;5112441;28;20530;-70
2022/10/14 08:57:27;;;;;;;3.20;2.80;;;16.00;69.00;;;;;;5112558;28;20472;-69
2022/10/14 08:59:55;;;;;;;3.80;3.00;;;16.00;99.90;;;;;;5111752;28;20452;-66
2022/10/14 09:02:34;;;;;;;3.90;2.87;;;16.10;74.90;;;;;;5112731;28;20479;-70
2022/10/14 09:05:02;;;;;;;3.70;2.60;;;16.20;73.00;;;;;;5111149;28;20463;-71
2022/10/14 09:07:31;;;;;;;4.83;2.57;;;16.10;42.40;;;;;;5112270;28;20931;-70
2022/10/14 09:10:03;;;;;;;4.30;2.60;;;16.40;35.40;;;;;;5111322;28;20451;-70
2022/10/14 09:12:33;;;;;;;3.60;2.27;;;16.50;1.00;;;;;;5112460;28;20451;-70
2022/10/14 09:15:08;;;;;;;3.00;2.40;;;16.40;1.00;;;;;;5111749;28;20957;-71
2022/10/14 09:17:42;;;;;;;3.13;2.57;;;16.50;1.00;;;;;;5111843;28;20502;-70
2022/10/14 09:20:18;;;;;;;2.93;2.10;;;16.60;99.90;;;;;;5111038;28;20454;-70
2022/10/14 09:22:47;;;;;;;3.90;2.63;;;16.50;1.00;;;;;;5112402;28;20459;-70
2022/10/14 09:25:16;;;;;;;2.70;2.13;;;16.50;1.00;;;;;;5111433;28;20809;-71
2022/10/14 09:27:42;;;;;;;4.20;2.00;;;16.40;1.00;;;;;;5112230;28;20462;-71
2022/10/14 09:30:14;;;;;;;5.90;2.03;;;16.50;99.90;;;;;;5111197;28;20454;-70
2022/10/14 09:32:47;;;;;;;3.50;2.00;;;16.70;99.90;;;;;;5111656;28;20454;-70
2022/10/14 09:35:22;;;;;;;3.43;2.47;;;16.90;1.00;;;;;;5111375;28;20895;-71
2022/10/14 09:37:49;;;;;;;2.47;1.87;;;17.00;7.00;;;;;;5112093;28;20482;-71
2022/10/14 09:40:28;;;;;;;4.13;1.93;;;17.00;1.00;;;;;;5110918;28;20467;-70
2022/10/14 09:42:59;;;;;;;3.40;2.40;;;16.90;1.00;;;;;;5111448;28;20447;-67
2022/10/14 09:45:29;;;;;;;2.70;1.93;;;17.10;1.00;;;;;;5111607;28;20949;-71
2022/10/14 09:48:02;;;;;;;3.87;2.37;;;17.10;1.00;;;;;;5110740;28;20478;-69
2022/10/14 09:50:34;;;;;;;6.50;2.10;;;17.20;1.00;;;;;;5111424;28;20795;-70
2022/10/14 09:53:04;;;;;;;2.80;1.83;;;17.20;99.90;;;;;;5111080;28;20528;-71
2022/10/14 09:55:31;;;;;;;3.23;2.10;;;17.30;99.90;;;;;;5098075;28;20440;-71
2022/10/14 09:58:06;;;;;;;2.43;2.20;;;17.20;1.00;;;;;;5110774;28;20467;-69
2022/10/14 10:00:36;;;;;;;2.27;2.07;;;17.30;1.00;;;;;;5111530;28;20530;-70
2022/10/14 10:03:05;;;;;;;3.03;2.10;;;17.60;1.00;;;;;;5110597;28;20934;-71
2022/10/14 10:05:34;;;;;;;3.70;2.30;;;17.50;99.90;;;;;;5111756;28;20539;-69
2022/10/14 10:08:11;;;;;;;2.50;1.53;;;17.40;99.90;;;;;;5111030;28;20538;-70
2022/10/14 10:10:38;;;;;;;2.47;1.80;;;17.60;99.90;;;;;;5102643;28;20442;-70
2022/10/14 10:13:20;;;;;;;1.63;1.53;;;17.50;1.00;;;;;;5111094;28;20540;-70
2022/10/14 10:15:57;;;;;;;2.50;2.10;;;17.90;1.00;;;;;;5112966;28;20440;-71
2022/10/14 10:18:25;;;;;;;2.30;1.93;;;17.90;99.90;;;;;;5115875;28;20436;-70
2022/10/14 10:21:05;;;;;;;3.30;1.90;;;18.10;1.00;;;;;;5115400;28;20447;-70
2022/10/14 10:23:33;;;;;;;3.73;1.90;;;18.00;99.90;;;;;;5115565;28;20443;-72
2022/10/14 10:26:15;;;;;;;2.40;1.93;;;18.00;1.00;;;;;;5114586;28;20443;-70
2022/10/14 10:28:45;;;;;;;2.07;1.80;;;18.40;99.90;;;;;;5115286;28;20440;-70
2022/10/14 10:31:24;;;;;;;2.50;1.93;;;18.30;1.00;;;;;;5101626;28;20447;-70
2022/10/14 10:34:01;;;;;;;4.53;1.50;;;18.10;99.90;;;;;;5115218;28;20927;-71
2022/10/14 10:36:33;;;;;;;4.00;2.23;;;18.10;99.90;;;;;;5115548;28;20479;-71
2022/10/14 10:39:05;;;;;;;3.20;1.97;;;18.10;1.00;;;;;;5114498;28;20442;-70
2022/10/14 10:41:43;;;;;;;2.30;1.90;;;18.30;23.70;;;;;;5115512;28;20444;-70
2022/10/14 10:44:41;;;;;;;2.47;1.93;;;18.40;1.00;;;;;;5114773;28;20439;-71
2022/10/14 10:47:23;;;;;;;2.10;1.70;;;18.20;1.00;;;;;;5114723;28;20467;-70
2022/10/14 10:50:20;;;;;;;3.07;2.20;;;18.20;99.90;;;;;;5114841;28;20442;-71
2022/10/14 10:53:02;;;;;;;3.03;2.10;;;18.30;1.00;;;;;;5102266;28;20462;-70
2022/10/14 10:55:38;;;;;;;3.07;1.93;;;18.30;1.00;;;;;;5115117;28;20510;-71
2022/10/14 10:58:17;;;;;;;1.90;1.57;;;18.00;99.90;;;;;;5114763;28;20497;-70
2022/10/14 11:00:53;;;;;;;1.80;1.70;;;17.80;1.00;;;;;;5114585;28;20435;-70
2022/10/14 11:03:37;;;;;;;3.90;1.70;;;17.80;99.90;;;;;;5114950;28;20454;-70
2022/10/14 11:06:11;;;;;;;3.10;2.17;;;17.80;99.90;;;;;;5114174;28;20435;-70
2022/10/14 11:12:09;;;;;;;6.70;2.00;;;17.80;1.00;;;;;;5114497;28;20894;-70
2022/10/14 11:15:08;;;;;;;2.10;1.60;;;17.70;1.00;;;;;;5114696;28;20440;-70
2022/10/14 11:17:44;;;;;;;3.20;1.57;;;17.60;1.00;;;;;;5109256;28;20488;-70
2022/10/14 11:20:21;;;;;;;3.10;1.80;;;17.40;1.00;;;;;;5113531;28;20440;-70
2022/10/14 11:23:08;;;;;;;2.40;1.93;;;16.80;99.90;;;;;;5114492;28;20448;-70
2022/10/14 11:25:48;;;;;;;2.70;1.73;;;16.50;99.90;;;;;;5114607;28;20454;-70
2022/10/14 11:28:24;;;;;;;2.27;2.00;;;16.40;99.90;;;;;;5113042;27;20803;-70
2022/10/14 11:30:59;;;;;;;3.93;2.17;;;16.40;99.90;;;;;;5114378;28;20454;-70
2022/10/14 11:33:39;;;;;;;4.50;3.03;;;16.60;99.90;;;;;;5114367;28;20436;-69
2022/10/14 11:36:19;;;;;;;2.53;2.03;;;16.70;99.90;;;;;;5113908;28;20447;-71
2022/10/14 11:39:03;;;;;;;3.80;2.17;;;16.70;99.90;;;;;;5113611;28;20961;-70
2022/10/14 11:41:42;;;;;;;3.43;2.13;;;16.80;99.90;;;;;;5114276;28;20444;-70
2022/10/14 11:44:19;;;;;;;3.27;1.80;;;16.90;99.90;;;;;;5113777;28;20443;-70
2022/10/14 11:46:51;;;;;;;4.93;2.00;;;17.10;99.90;;;;;;5113754;28;20460;-70
2022/10/14 11:49:25;;;;;;;5.30;2.30;;;17.20;99.90;;;;;;5113153;28;20475;-70
2022/10/14 11:51:55;;;;;;;4.10;2.23;;;17.50;99.90;;;;;;5114178;28;20439;-69
2022/10/14 11:54:30;;;;;;;1.80;1.50;;;17.60;99.90;;;;;;5114089;28;20444;-70
2022/10/14 11:57:01;;;;;;;4.20;1.70;;;18.00;1.00;;;;;;5113386;28;20475;-69
2022/10/14 11:59:44;;;;;;;3.40;1.70;;;17.90;1.00;;;;;;5113896;28;20448;-70
2022/10/14 12:02:27;;;;;;;2.63;1.90;;;17.90;1.00;;;;;;5110030;28;20481;-70
2022/10/14 12:05:01;;;;;;;1.70;1.43;;;18.00;1.00;;;;;;5113718;28;20448;-70
2022/10/14 12:07:36;;;;;;;2.73;2.03;;;18.10;1.00;;;;;;5113904;28;20469;-71
2022/10/14 12:10:13;;;;;;;3.53;1.90;;;18.20;1.00;;;;;;5109409;28;20439;-70
2022/10/14 12:12:41;;;;;;;2.10;1.90;;;18.30;99.90;;;;;;5113548;28;20450;-71
2022/10/14 12:15:16;;;;;;;3.60;1.90;;;18.20;99.90;;;;;;5112723;28;20934;-70
2022/10/14 12:17:47;;;;;;;2.00;1.60;;;18.10;99.90;;;;;;5113557;28;21176;-70
2022/10/14 12:20:27;;;;;;;1.90;1.70;;;18.20;99.90;;;;;;5112151;28;20618;-71
2022/10/14 12:22:56;;;;;;;2.50;1.50;;;18.20;99.90;;;;;;5113379;28;20451;-66
2022/10/14 12:25:30;;;;;;;2.20;1.70;;;18.40;99.90;;;;;;5113452;28;20447;-70
2022/10/14 12:27:57;;;;;;;1.70;1.60;;;18.40;8.90;;;;;;5098841;28;20957;-67
2022/10/14 12:30:33;;;;;;;2.70;1.97;;;18.40;1.00;;;;;;5112677;28;20443;-69
2022/10/14 12:33:02;;;;;;;1.37;1.20;;;18.60;1.00;;;;;;5112619;28;20458;-70
2022/10/14 12:35:57;;;;;;;3.10;1.90;;;18.60;99.90;;;;;;5112852;28;20448;-70
2022/10/14 12:38:25;;;;;;;4.07;1.60;;;18.70;99.90;;;;;;5112023;28;21077;-69
2022/10/14 12:40:54;;;;;;;2.53;2.00;;;18.70;1.00;;;;;;5112524;28;20501;-70
2022/10/14 12:43:26;;;;;;;1.97;1.40;;;18.60;99.90;;;;;;5113032;28;20926;-71
2022/10/14 12:46:11;;;;;;;1.87;1.37;;;18.90;1.00;;;;;;5099779;28;20431;-70
2022/10/14 12:48:44;;;;;;;1.83;1.30;;;18.90;1.00;;;;;;5112260;28;20951;-71
2022/10/14 12:51:13;;;;;;;2.90;1.20;;;18.80;1.00;;;;;;5112396;28;20501;-70
2022/10/14 12:53:51;;;;;;;2.70;1.30;;;18.70;1.00;;;;;;5112712;28;20463;-71
2022/10/14 12:56:31;;;;;;;1.60;1.13;;;18.70;85.70;;;;;;5112421;28;20444;-71
2022/10/14 12:59:01;;;;;;;2.63;1.53;;;18.60;99.90;;;;;;5098929;28;20463;-71
2022/10/14 13:01:29;;;;;;;3.00;1.87;;;18.70;99.90;;;;;;5112362;28;20546;-71
2022/10/14 13:03:59;;;;;;;1.40;1.20;;;18.60;1.00;;;;;;5111786;28;20454;-70
2022/10/14 13:06:34;;;;;;;1.73;1.40;;;18.50;99.90;;;;;;5112098;28;20440;-71
2022/10/14 13:09:31;;;;;;;1.53;1.20;;;18.30;1.00;;;;;;5111595;28;20443;-70